sensor_id;sensor_type;location;lat;lon;timestamp;P1;durP1;ratioP1;P2;durP2;ratioP2
12135;SDS011;6131;56.420;15.548;2023-04-29T00:01:36;4.27;;;1.70;;
12135;SDS011;6131;56.420;15.548;2023-04-29T00:04:02;3.00;;;1.90;;
12135;SDS011;6131;56.420;15.548;2023-04-29T00:06:28;3.07;;;1.70;;
12135;SDS011;6131;56.420;15.548;2023-04-29T00:08:54;3.67;;;1.90;;
12135;SDS011;6131;56.420;15.548;2023-04-29T00:11:20;5.50;;;2.03;;
12135;SDS011;6131;56.420;15.548;2023-04-29T00:13:46;3.27;;;2.00;;
12135;SDS011;6131;56.420;15.548;2023-04-29T00:16:13;3.53;;;2.13;;
12135;SDS011;6131;56.420;15.548;2023-04-29T00:18:39;6.13;;;2.10;;
12135;SDS011;6131;56.420;15.548;2023-04-29T00:21:05;2.87;;;1.90;;
12135;SDS011;6131;56.420;15.548;2023-04-29T00:23:31;4.77;;;2.00;;
12135;SDS011;6131;56.420;15.548;2023-04-29T00:25:58;5.93;;;2.10;;
12135;SDS011;6131;56.420;15.548;2023-04-29T00:28:24;3.10;;;1.80;;
12135;SDS011;6131;56.420;15.548;2023-04-29T00:30:50;4.87;;;2.00;;
12135;SDS011;6131;56.420;15.548;2023-04-29T00:33:15;2.70;;;1.67;;
12135;SDS011;6131;56.420;15.548;2023-04-29T00:35:41;5.33;;;1.97;;
12135;SDS011;6131;56.420;15.548;2023-04-29T00:38:08;4.27;;;1.67;;
12135;SDS011;6131;56.420;15.548;2023-04-29T00:40:34;3.00;;;1.83;;
12135;SDS011;6131;56.420;15.548;2023-04-29T00:43:00;3.83;;;1.80;;
12135;SDS011;6131;56.420;15.548;2023-04-29T00:45:26;2.87;;;1.80;;
12135;SDS011;6131;56.420;15.548;2023-04-29T00:47:52;4.27;;;2.17;;
12135;SDS011;6131;56.420;15.548;2023-04-29T00:50:18;3.30;;;2.00;;
12135;SDS011;6131;56.420;15.548;2023-04-29T00:52:44;2.90;;;1.80;;
12135;SDS011;6131;56.420;15.548;2023-04-29T00:55:10;2.43;;;1.63;;
12135;SDS011;6131;56.420;15.548;2023-04-29T00:57:37;4.30;;;1.43;;
12135;SDS011;6131;56.420;15.548;2023-04-29T01:00:03;5.03;;;1.80;;
12135;SDS011;6131;56.420;15.548;2023-04-29T01:02:30;2.23;;;1.50;;
12135;SDS011;6131;56.420;15.548;2023-04-29T01:04:56;1.77;;;1.57;;
12135;SDS011;6131;56.420;15.548;2023-04-29T01:12:45;2.33;;;1.50;;
12135;SDS011;6131;56.420;15.548;2023-04-29T01:18:04;2.33;;;1.47;;
12135;SDS011;6131;56.420;15.548;2023-04-29T01:20:30;2.27;;;1.57;;
12135;SDS011;6131;56.420;15.548;2023-04-29T01:22:57;2.97;;;1.80;;
12135;SDS011;6131;56.420;15.548;2023-04-29T01:25:23;2.87;;;1.50;;
12135;SDS011;6131;56.420;15.548;2023-04-29T01:30:44;3.13;;;1.50;;
12135;SDS011;6131;56.420;15.548;2023-04-29T01:36:17;5.50;;;1.70;;
12135;SDS011;6131;56.420;15.548;2023-04-29T01:38:48;2.47;;;1.83;;
12135;SDS011;6131;56.420;15.548;2023-04-29T01:43:50;4.57;;;1.93;;
12135;SDS011;6131;56.420;15.548;2023-04-29T01:46:17;4.80;;;1.83;;
12135;SDS011;6131;56.420;15.548;2023-04-29T01:48:43;2.57;;;1.67;;
12135;SDS011;6131;56.420;15.548;2023-04-29T01:51:10;5.77;;;1.90;;
12135;SDS011;6131;56.420;15.548;2023-04-29T01:53:36;3.20;;;1.80;;
12135;SDS011;6131;56.420;15.548;2023-04-29T01:56:04;3.97;;;1.60;;
12135;SDS011;6131;56.420;15.548;2023-04-29T01:58:30;4.73;;;1.70;;
12135;SDS011;6131;56.420;15.548;2023-04-29T02:00:56;4.37;;;2.37;;
12135;SDS011;6131;56.420;15.548;2023-04-29T02:03:22;3.03;;;2.20;;
12135;SDS011;6131;56.420;15.548;2023-04-29T02:05:48;2.10;;;1.87;;
12135;SDS011;6131;56.420;15.548;2023-04-29T19:01:18;2.97;;;0.90;;
12135;SDS011;6131;56.420;15.548;2023-04-29T19:03:44;2.50;;;0.80;;
12135;SDS011;6131;56.420;15.548;2023-04-29T19:06:10;3.70;;;0.95;;
12135;SDS011;6131;56.420;15.548;2023-04-29T19:08:36;4.20;;;1.20;;
12135;SDS011;6131;56.420;15.548;2023-04-29T19:11:02;2.20;;;0.90;;
12135;SDS011;6131;56.420;15.548;2023-04-29T19:13:29;2.70;;;0.70;;
12135;SDS011;6131;56.420;15.548;2023-04-29T19:15:55;1.47;;;0.77;;
12135;SDS011;6131;56.420;15.548;2023-04-29T19:18:21;2.87;;;0.90;;
12135;SDS011;6131;56.420;15.548;2023-04-29T19:20:47;4.20;;;1.00;;
12135;SDS011;6131;56.420;15.548;2023-04-29T19:23:13;1.33;;;1.00;;
12135;SDS011;6131;56.420;15.548;2023-04-29T19:25:39;2.33;;;0.90;;
12135;SDS011;6131;56.420;15.548;2023-04-29T19:28:05;3.13;;;0.93;;
12135;SDS011;6131;56.420;15.548;2023-04-29T19:30:31;2.60;;;0.80;;
12135;SDS011;6131;56.420;15.548;2023-04-29T19:32:58;3.97;;;0.67;;
12135;SDS011;6131;56.420;15.548;2023-04-29T19:35:24;1.83;;;0.93;;
12135;SDS011;6131;56.420;15.548;2023-04-29T19:37:50;4.60;;;0.90;;
12135;SDS011;6131;56.420;15.548;2023-04-29T19:40:18;1.70;;;0.90;;
12135;SDS011;6131;56.420;15.548;2023-04-29T19:42:44;2.57;;;0.93;;
12135;SDS011;6131;56.420;15.548;2023-04-29T19:45:10;4.33;;;1.20;;
12135;SDS011;6131;56.420;15.548;2023-04-29T19:47:36;2.03;;;0.70;;
12135;SDS011;6131;56.420;15.548;2023-04-29T19:50:03;3.60;;;1.30;;
12135;SDS011;6131;56.420;15.548;2023-04-29T19:52:29;2.17;;;0.63;;
12135;SDS011;6131;56.420;15.548;2023-04-29T19:54:55;1.63;;;0.73;;
12135;SDS011;6131;56.420;15.548;2023-04-29T19:57:21;4.00;;;0.97;;
12135;SDS011;6131;56.420;15.548;2023-04-29T19:59:47;1.30;;;0.80;;
12135;SDS011;6131;56.420;15.548;2023-04-29T20:02:13;2.40;;;0.90;;
12135;SDS011;6131;56.420;15.548;2023-04-29T20:04:39;2.07;;;0.73;;
12135;SDS011;6131;56.420;15.548;2023-04-29T20:07:05;1.00;;;0.80;;
12135;SDS011;6131;56.420;15.548;2023-04-29T20:09:31;4.50;;;0.80;;
12135;SDS011;6131;56.420;15.548;2023-04-29T20:11:59;3.50;;;0.60;;
12135;SDS011;6131;56.420;15.548;2023-04-29T20:14:27;1.17;;;0.60;;
12135;SDS011;6131;56.420;15.548;2023-04-29T20:16:53;2.53;;;0.60;;
12135;SDS011;6131;56.420;15.548;2023-04-29T20:19:19;4.83;;;1.00;;
12135;SDS011;6131;56.420;15.548;2023-04-29T20:21:45;2.77;;;0.70;;
12135;SDS011;6131;56.420;15.548;2023-04-29T20:24:12;1.90;;;1.00;;
12135;SDS011;6131;56.420;15.548;2023-04-29T20:26:38;2.73;;;0.77;;
12135;SDS011;6131;56.420;15.548;2023-04-29T20:29:04;1.33;;;0.70;;
12135;SDS011;6131;56.420;15.548;2023-04-29T20:31:30;1.23;;;0.70;;
12135;SDS011;6131;56.420;15.548;2023-04-29T20:33:56;2.70;;;0.90;;
12135;SDS011;6131;56.420;15.548;2023-04-29T20:36:22;1.33;;;0.73;;
12135;SDS011;6131;56.420;15.548;2023-04-29T20:38:48;2.00;;;0.80;;
12135;SDS011;6131;56.420;15.548;2023-04-29T20:41:14;1.60;;;0.90;;
12135;SDS011;6131;56.420;15.548;2023-04-29T20:43:40;4.90;;;0.80;;
12135;SDS011;6131;56.420;15.548;2023-04-29T20:46:06;4.67;;;1.20;;
12135;SDS011;6131;56.420;15.548;2023-04-29T20:48:33;3.30;;;0.90;;
12135;SDS011;6131;56.420;15.548;2023-04-29T20:50:59;2.70;;;0.90;;
12135;SDS011;6131;56.420;15.548;2023-04-29T20:53:25;4.97;;;0.97;;
12135;SDS011;6131;56.420;15.548;2023-04-29T20:55:51;1.60;;;0.63;;
12135;SDS011;6131;56.420;15.548;2023-04-29T20:58:17;1.60;;;0.80;;
12135;SDS011;6131;56.420;15.548;2023-04-29T21:00:43;2.73;;;0.97;;
12135;SDS011;6131;56.420;15.548;2023-04-29T21:03:09;2.77;;;0.80;;
12135;SDS011;6131;56.420;15.548;2023-04-29T21:05:35;2.73;;;1.03;;
12135;SDS011;6131;56.420;15.548;2023-04-29T21:08:01;2.87;;;1.10;;
12135;SDS011;6131;56.420;15.548;2023-04-29T21:10:27;3.13;;;0.80;;
12135;SDS011;6131;56.420;15.548;2023-04-29T21:12:53;1.90;;;1.07;;
12135;SDS011;6131;56.420;15.548;2023-04-29T21:15:19;2.70;;;1.10;;
12135;SDS011;6131;56.420;15.548;2023-04-29T21:17:46;4.53;;;1.00;;
12135;SDS011;6131;56.420;15.548;2023-04-29T21:20:12;4.57;;;1.40;;
12135;SDS011;6131;56.420;15.548;2023-04-29T21:22:38;4.40;;;1.20;;
12135;SDS011;6131;56.420;15.548;2023-04-29T21:25:04;1.83;;;1.17;;
12135;SDS011;6131;56.420;15.548;2023-04-29T21:27:30;3.53;;;1.10;;
12135;SDS011;6131;56.420;15.548;2023-04-29T21:29:56;4.57;;;1.13;;
12135;SDS011;6131;56.420;15.548;2023-04-29T21:32:22;3.37;;;1.07;;
12135;SDS011;6131;56.420;15.548;2023-04-29T21:34:48;4.80;;;1.40;;
12135;SDS011;6131;56.420;15.548;2023-04-29T21:37:14;5.67;;;1.30;;
12135;SDS011;6131;56.420;15.548;2023-04-29T21:39:40;3.53;;;0.90;;
12135;SDS011;6131;56.420;15.548;2023-04-29T21:42:07;2.80;;;1.43;;
12135;SDS011;6131;56.420;15.548;2023-04-29T21:44:33;4.73;;;1.30;;
12135;SDS011;6131;56.420;15.548;2023-04-29T21:46:59;6.60;;;1.40;;
12135;SDS011;6131;56.420;15.548;2023-04-29T21:49:29;4.70;;;1.33;;
12135;SDS011;6131;56.420;15.548;2023-04-29T21:51:55;7.50;;;1.40;;
12135;SDS011;6131;56.420;15.548;2023-04-29T21:54:21;4.00;;;1.30;;
12135;SDS011;6131;56.420;15.548;2023-04-29T21:56:47;5.60;;;1.27;;
12135;SDS011;6131;56.420;15.548;2023-04-29T21:59:13;3.87;;;1.27;;
12135;SDS011;6131;56.420;15.548;2023-04-29T22:01:39;3.77;;;1.43;;
12135;SDS011;6131;56.420;15.548;2023-04-29T22:04:11;3.40;;;1.77;;
12135;SDS011;6131;56.420;15.548;2023-04-29T22:06:37;5.47;;;1.20;;
12135;SDS011;6131;56.420;15.548;2023-04-29T22:09:03;4.57;;;1.30;;
12135;SDS011;6131;56.420;15.548;2023-04-29T22:11:31;5.80;;;1.80;;
12135;SDS011;6131;56.420;15.548;2023-04-29T22:13:57;8.83;;;1.37;;
12135;SDS011;6131;56.420;15.548;2023-04-29T22:16:23;6.90;;;1.30;;
12135;SDS011;6131;56.420;15.548;2023-04-29T22:18:49;5.70;;;1.93;;
12135;SDS011;6131;56.420;15.548;2023-04-29T22:21:16;3.30;;;1.50;;
12135;SDS011;6131;56.420;15.548;2023-04-29T22:23:42;5.00;;;1.40;;
12135;SDS011;6131;56.420;15.548;2023-04-29T22:26:08;5.53;;;1.57;;
12135;SDS011;6131;56.420;15.548;2023-04-29T22:28:34;8.30;;;1.67;;
12135;SDS011;6131;56.420;15.548;2023-04-29T22:31:00;6.20;;;1.83;;
12135;SDS011;6131;56.420;15.548;2023-04-29T22:33:26;6.17;;;2.30;;
12135;SDS011;6131;56.420;15.548;2023-04-29T22:35:53;7.73;;;1.43;;
12135;SDS011;6131;56.420;15.548;2023-04-29T22:38:19;3.90;;;1.53;;
12135;SDS011;6131;56.420;15.548;2023-04-29T22:40:49;5.30;;;1.73;;
12135;SDS011;6131;56.420;15.548;2023-04-29T22:43:15;5.10;;;1.50;;
12135;SDS011;6131;56.420;15.548;2023-04-29T22:45:41;4.90;;;1.30;;
12135;SDS011;6131;56.420;15.548;2023-04-29T22:48:07;3.80;;;1.83;;
12135;SDS011;6131;56.420;15.548;2023-04-29T22:50:33;6.97;;;2.00;;
12135;SDS011;6131;56.420;15.548;2023-04-29T22:52:59;4.87;;;1.47;;
12135;SDS011;6131;56.420;15.548;2023-04-29T22:55:25;5.50;;;1.83;;
12135;SDS011;6131;56.420;15.548;2023-04-29T22:57:51;5.30;;;1.83;;
12135;SDS011;6131;56.420;15.548;2023-04-29T23:00:17;8.87;;;1.60;;
12135;SDS011;6131;56.420;15.548;2023-04-29T23:02:43;5.73;;;1.80;;
12135;SDS011;6131;56.420;15.548;2023-04-29T23:05:10;5.50;;;1.70;;
12135;SDS011;6131;56.420;15.548;2023-04-29T23:07:36;6.10;;;1.70;;
12135;SDS011;6131;56.420;15.548;2023-04-29T23:10:02;6.40;;;1.77;;
12135;SDS011;6131;56.420;15.548;2023-04-29T23:12:28;5.40;;;1.60;;
12135;SDS011;6131;56.420;15.548;2023-04-29T23:14:54;6.73;;;1.77;;
12135;SDS011;6131;56.420;15.548;2023-04-29T23:17:20;8.37;;;2.07;;
12135;SDS011;6131;56.420;15.548;2023-04-29T23:19:46;8.77;;;2.10;;
12135;SDS011;6131;56.420;15.548;2023-04-29T23:22:12;6.40;;;1.50;;
12135;SDS011;6131;56.420;15.548;2023-04-29T23:24:40;3.73;;;1.63;;
12135;SDS011;6131;56.420;15.548;2023-04-29T23:27:06;6.83;;;1.90;;
12135;SDS011;6131;56.420;15.548;2023-04-29T23:29:33;6.23;;;1.77;;
12135;SDS011;6131;56.420;15.548;2023-04-29T23:31:59;5.57;;;1.80;;
12135;SDS011;6131;56.420;15.548;2023-04-29T23:34:25;7.53;;;1.97;;
12135;SDS011;6131;56.420;15.548;2023-04-29T23:36:51;6.97;;;1.80;;
12135;SDS011;6131;56.420;15.548;2023-04-29T23:39:17;7.70;;;1.83;;
12135;SDS011;6131;56.420;15.548;2023-04-29T23:41:43;7.67;;;1.97;;
12135;SDS011;6131;56.420;15.548;2023-04-29T23:44:09;8.37;;;1.80;;
12135;SDS011;6131;56.420;15.548;2023-04-29T23:46:35;5.33;;;1.83;;
12135;SDS011;6131;56.420;15.548;2023-04-29T23:49:01;5.43;;;1.57;;
12135;SDS011;6131;56.420;15.548;2023-04-29T23:51:27;4.70;;;1.97;;
12135;SDS011;6131;56.420;15.548;2023-04-29T23:53:53;7.50;;;2.07;;
12135;SDS011;6131;56.420;15.548;2023-04-29T23:56:19;5.00;;;2.17;;
12135;SDS011;6131;56.420;15.548;2023-04-29T23:58:45;5.17;;;1.80;;
